Miami, Florida
Traffic Map
Current Weather Conditions
Miami, Florida
Few Clouds
Few Clouds
83°
Feels Like: 89°
Wind Chill: 83° Ceiling: Unl
Heat Index: 89° Visibility: 10mi
Dew Point: 74° Wind: 12mph
Humidity: 74% Direction: 80° (E)
Pressure: 30.04in Gusts: 0mph
Raw Report DataKMIA 010753Z 08010KT 10SM FEW025 28/23 A3004 RMK AO2 SLP171 98311 T02830233
Traffic Incident Summary
Active as of:
Severity:
Category:
InformationThere was an issue retrieving the traffic information for this location. Please try a different location or try again shortly.
Advertisements
Track Severe Weather on mobile